Terminal Aerodrome Forecast
Issued by NWS Corpus Christi, TX

Home | Current Version | Previous Version | Text Only | Print | Product List | Glossary On
Versions: 1 2 3 4 5 6 7 8 9 10 11 12 13 14
000
FTUS44 KCRP 041125
TAFVCT
TAF
KVCT 041125Z 0412/0512 VRB03KT P6SM SCT020 BKN080
      TEMPO 0412/0415 5SM BR BKN018
     FM041500 19008KT P6SM VCSH SCT025 BKN080
      TEMPO 0415/0419 VRB15G25KT 5SM TSRA BR OVC025CB
     FM042000 15012G18KT P6SM VCTS SCT040CB BKN250
     FM050000 15010KT P6SM FEW025 SCT250
     FM051000 VRB03KT 6SM BR SCT015=

USA.gov is the U.S. government's official web portal to all federal, state and local government web resources and services.